Time;durP1;ratioP1;P1;durP2;ratioP2;P2;SDS_P1;SDS_P2;PMS_P1;PMS_P2;Temp;Humidity;BMP_temperature;BMP_pressure;BME280_temperature;BME280_humidity;BME280_pressure;Samples;Min_cycle;Max_cycle;Signal;HPM_P1;HPM_P2
2022/06/07 00:01:39;;;;;;;4.12;3.05;;;;;;;23.48;53.75;101501.72;1616709;88;21107;-49
2022/06/07 00:04:06;;;;;;;4.00;3.60;;;;;;;23.46;53.84;101499.64;1617679;88;21074;-49
2022/06/07 00:06:33;;;;;;;3.55;3.10;;;;;;;23.45;53.85;101492.64;1617676;88;21055;-53
2022/06/07 00:09:00;;;;;;;3.42;3.17;;;;;;;23.44;53.92;101489.59;1616760;88;21063;-49
2022/06/07 00:11:27;;;;;;;3.20;2.90;;;;;;;23.44;54.06;101494.90;1613566;88;21097;-50
2022/06/07 00:13:54;;;;;;;3.55;3.05;;;;;;;23.43;54.17;101499.84;1617667;88;21128;-53
2022/06/07 00:16:21;;;;;;;4.37;3.98;;;;;;;23.41;54.09;101501.75;1617684;88;21589;-53
2022/06/07 00:18:48;;;;;;;5.70;3.92;;;;;;;23.40;54.03;101497.38;1616760;88;21573;-51
2022/06/07 00:21:17;;;;;;;7.15;3.77;;;;;;;23.37;54.11;101490.44;1617115;88;21089;-51
2022/06/07 00:23:43;;;;;;;3.15;2.95;;;;;;;23.37;54.26;101489.58;1616222;88;21062;-51
2022/06/07 00:26:10;;;;;;;3.77;3.30;;;;;;;23.35;54.26;101487.50;1617732;88;21070;-52
2022/06/07 00:28:38;;;;;;;4.47;3.08;;;;;;;23.35;54.23;101488.83;1605440;87;21105;-53
2022/06/07 00:31:06;;;;;;;4.45;3.62;;;;;;;23.32;54.26;101489.90;1619381;87;21095;-49
2022/06/07 00:33:33;;;;;;;3.52;3.22;;;;;;;23.30;54.24;101489.58;1604907;87;21644;-50
2022/06/07 00:36:02;;;;;;;3.92;3.62;;;;;;;23.27;54.48;101481.79;1606625;87;21111;-50
2022/06/07 00:38:30;;;;;;;3.60;3.30;;;;;;;23.27;54.65;101477.80;1629067;87;21509;-51
2022/06/07 00:40:58;;;;;;;4.10;3.62;;;;;;;23.28;54.72;101476.88;1627716;87;21045;-53
2022/06/07 00:43:24;;;;;;;3.62;3.20;;;;;;;23.27;54.79;101477.34;1631703;87;21085;-51
2022/06/07 00:45:51;;;;;;;3.72;3.42;;;;;;;23.27;54.89;101477.80;1624138;87;21128;-52
2022/06/07 00:48:19;;;;;;;3.55;3.25;;;;;;;23.29;54.94;101479.89;1627716;87;21092;-50
2022/06/07 00:50:58;;;;;;;3.25;3.05;;;;;;;23.30;54.88;101478.95;1714306;81;21062;-51
2022/06/07 00:53:31;;;;;;;3.33;2.87;;;;;;;23.30;54.85;101482.47;1753235;82;21018;-51
2022/06/07 00:55:59;;;;;;;3.72;3.42;;;;;;;23.31;54.84;101484.16;1753723;82;21117;-51
2022/06/07 00:58:28;;;;;;;3.15;2.90;;;;;;;23.32;54.81;101483.73;1753951;82;21042;-49
2022/06/07 01:00:57;;;;;;;5.17;3.62;;;;;;;23.31;54.85;101480.17;1729303;82;21085;-50
2022/06/07 01:03:25;;;;;;;3.90;3.60;;;;;;;23.31;54.91;101478.84;1753532;82;21026;-51
2022/06/07 01:05:53;;;;;;;4.62;3.17;;;;;;;23.31;54.91;101475.33;1743340;82;21113;-52
2022/06/07 01:11:11;;;;;;;3.47;3.17;;;;;;;23.34;54.64;101477.84;1753419;82;21073;-54
2022/06/07 01:13:39;;;;;;;3.40;3.12;;;;;;;23.34;54.42;101479.17;1753769;82;21022;-50
2022/06/07 01:16:16;;;;;;;3.87;3.47;;;;;;;23.32;54.21;101479.74;1718852;83;21569;-51
2022/06/07 01:18:45;;;;;;;4.40;3.25;;;;;;;23.31;54.07;101475.33;1708374;83;21090;-51
2022/06/07 01:21:22;;;;;;;3.22;3.00;;;;;;;23.30;54.08;101470.98;1707655;83;21101;-51
2022/06/07 01:23:49;;;;;;;3.65;2.80;;;;;;;23.30;54.16;101474.97;1709510;83;21478;-54
2022/06/07 01:26:18;;;;;;;3.80;2.72;;;;;;;23.28;54.00;101473.75;1710260;83;21060;-51
2022/06/07 01:28:45;;;;;;;4.40;2.70;;;;;;;23.26;53.81;101477.44;1693951;83;21094;-52
2022/06/07 01:31:14;;;;;;;3.15;2.95;;;;;;;23.20;53.83;101473.84;1666692;83;21022;-51
2022/06/07 01:33:40;;;;;;;2.65;2.45;;;;;;;23.15;53.93;101475.92;1703853;83;21038;-49
2022/06/07 01:36:11;;;;;;;5.37;3.20;;;;;;;23.09;54.19;101472.32;1703092;83;21074;-53
2022/06/07 01:38:40;;;;;;;3.15;2.95;;;;;;;23.03;54.46;101472.24;1708337;83;21550;-51
2022/06/07 01:43:54;;;;;;;4.00;3.10;;;;;;;22.96;54.66;101466.06;1701694;83;21061;-50
2022/06/07 01:46:21;;;;;;;4.58;2.70;;;;;;;23.00;54.66;101470.26;1702175;83;21069;-54
2022/06/07 01:48:49;;;;;;;4.85;2.95;;;;;;;23.01;54.65;101464.84;1698258;83;21628;-49
2022/06/07 01:51:17;;;;;;;3.30;3.00;;;;;;;23.01;54.73;101464.84;1666055;85;21038;-49
2022/06/07 01:53:45;;;;;;;3.75;3.40;;;;;;;23.01;54.83;101462.66;1664867;85;21101;-53
2022/06/07 01:56:16;;;;;;;4.35;3.10;;;;;;;23.03;54.96;101467.39;1664416;85;21075;-52
2022/06/07 01:58:45;;;;;;;3.12;2.83;;;;;;;23.06;55.08;101467.22;1665232;85;21035;-49
2022/06/07 02:01:14;;;;;;;6.15;3.12;;;;;;;23.01;55.25;101470.16;1664102;85;21530;-51
2022/06/07 02:03:41;;;;;;;3.10;2.52;;;;;;;22.91;55.69;101466.37;1662112;85;21050;-50
2022/06/07 02:06:11;;;;;;;1.92;1.82;;;;;;;22.92;55.62;101480.00;1662103;85;21075;-52
2022/06/07 02:08:40;;;;;;;2.35;1.77;;;;;;;23.14;54.92;101471.08;1663392;85;21562;-50
2022/06/07 02:11:12;;;;;;;1.57;1.47;;;;;;;23.17;54.58;101470.04;1680362;80;21006;-50
2022/06/07 02:13:42;;;;;;;1.92;1.37;;;;;;;23.21;52.97;101471.55;1780315;80;21479;-49
2022/06/07 02:16:09;;;;;;;1.30;1.20;;;;;;;23.21;52.27;101470.23;1777233;80;21017;-51
2022/06/07 02:18:36;;;;;;;1.30;1.20;;;;;;;23.19;51.81;101472.98;1769805;80;21015;-49
2022/06/07 02:21:06;;;;;;;1.32;1.22;;;;;;;23.23;51.27;101463.02;1782138;80;21543;-52
2022/06/07 02:23:35;;;;;;;2.58;1.52;;;;;;;23.24;50.86;101466.06;1783176;80;21018;-50
2022/06/07 02:26:43;;;;;;;1.40;1.30;;;;;;;23.23;50.55;101471.84;1774690;80;21019;-51
2022/06/07 02:29:21;;;;;;;2.17;1.17;;;;;;;23.19;50.26;101465.48;1767253;80;21058;-49
2022/06/07 02:31:52;;;;;;;1.35;1.20;;;;;;;23.21;50.00;101466.24;1769228;80;21066;-50
2022/06/07 02:34:20;;;;;;;2.52;1.30;;;;;;;23.21;50.18;101467.57;1783341;80;21007;-52
2022/06/07 02:36:49;;;;;;;4.80;1.42;;;;;;;23.21;50.22;101463.59;1780177;80;21053;-51
2022/06/07 02:39:16;;;;;;;1.80;1.20;;;;;;;23.20;50.15;101452.61;1778855;80;21018;-49
2022/06/07 02:41:44;;;;;;;2.08;1.42;;;;;;;23.20;50.17;101456.59;1765813;80;21034;-51
2022/06/07 02:44:11;;;;;;;1.55;1.27;;;;;;;23.20;50.19;101456.59;1776857;80;21002;-49
2022/06/07 02:46:38;;;;;;;1.37;1.27;;;;;;;23.19;50.39;101456.19;1774034;80;21081;-50
2022/06/07 02:49:07;;;;;;;1.20;1.10;;;;;;;23.22;50.45;101461.33;1777437;80;21522;-50
2022/06/07 02:51:34;;;;;;;1.60;1.40;;;;;;;23.23;50.46;101463.02;1773601;80;21062;-49
2022/06/07 02:54:01;;;;;;;1.32;1.22;;;;;;;23.25;50.47;101461.11;1771348;80;21018;-49
2022/06/07 02:56:29;;;;;;;1.47;1.35;;;;;;;23.25;50.50;101465.96;1782199;80;21061;-49
2022/06/07 02:58:57;;;;;;;1.55;1.20;;;;;;;23.23;50.65;101474.96;1783113;80;21018;-52
2022/06/07 03:01:24;;;;;;;1.85;1.70;;;;;;;23.24;50.60;101479.34;1745117;80;21030;-49
2022/06/07 03:03:51;;;;;;;1.70;1.35;;;;;;;23.22;50.63;101483.89;1771708;80;20994;-51
2022/06/07 03:06:18;;;;;;;2.92;1.60;;;;;;;23.22;50.94;101478.59;1770666;80;21518;-51
2022/06/07 03:08:47;;;;;;;3.15;1.40;;;;;;;23.22;50.59;101482.56;1783312;80;21511;-49
2022/06/07 03:11:15;;;;;;;2.40;1.80;;;;;;;23.21;50.13;101482.17;1786594;80;20982;-50
2022/06/07 03:13:42;;;;;;;1.45;1.32;;;;;;;23.20;49.83;101476.50;1769465;80;21018;-52
2022/06/07 03:16:11;;;;;;;1.90;1.42;;;;;;;23.22;49.59;101481.23;1770891;80;21049;-52
2022/06/07 03:18:38;;;;;;;3.55;1.37;;;;;;;23.22;49.15;101474.60;1785284;80;21513;-52
2022/06/07 03:21:05;;;;;;;4.17;1.37;;;;;;;23.22;48.74;101468.83;1773887;80;21059;-56
2022/06/07 03:23:33;;;;;;;1.40;1.27;;;;;;;23.22;48.39;101470.16;1774955;80;21467;-52
2022/06/07 03:26:08;;;;;;;1.30;1.20;;;;;;;23.21;48.37;101466.24;1773752;80;21034;-52
2022/06/07 03:28:37;;;;;;;2.50;1.57;;;;;;;23.22;48.27;101461.33;1756448;80;21082;-54
2022/06/07 03:31:08;;;;;;;2.92;1.70;;;;;;;23.23;48.14;101456.38;1752602;82;21606;-53
2022/06/07 03:33:37;;;;;;;;;;;;;;;23.23;47.75;101456.38;1748600;82;21052;-53
2022/06/07 03:36:10;;;;;;;1.70;1.60;;;;;;;23.23;47.76;101452.39;1752733;82;20122;-51
2022/06/07 03:38:38;;;;;;;1.65;1.50;;;;;;;23.20;48.22;101457.91;1719607;82;21004;-50
2022/06/07 03:41:04;;;;;;;2.52;1.50;;;;;;;23.22;48.80;101454.69;1752908;81;21023;-52
2022/06/07 03:43:32;;;;;;;2.12;1.45;;;;;;;23.21;48.94;101458.28;1752623;80;21044;-49
2022/06/07 03:46:17;;;;;;;2.25;1.40;;;;;;;23.20;48.57;101451.28;1727791;80;21011;-51
2022/06/07 03:48:45;;;;;;;2.47;1.42;;;;;;;23.21;48.43;101451.64;1753097;82;21535;-50
2022/06/07 03:51:13;;;;;;;1.45;1.35;;;;;;;23.21;48.19;101452.97;1752612;81;21067;-51
2022/06/07 03:53:41;;;;;;;1.87;1.40;;;;;;;23.21;48.21;101451.64;1753109;80;21015;-52
2022/06/07 03:56:08;;;;;;;2.02;1.35;;;;;;;23.22;47.91;101445.39;1753241;82;21532;-52
2022/06/07 03:58:40;;;;;;;1.82;1.55;;;;;;;23.21;47.71;101448.98;1749043;80;21063;-49
2022/06/07 04:01:10;;;;;;;2.08;1.57;;;;;;;23.19;47.78;101439.80;1752836;80;21063;-50
2022/06/07 04:03:37;;;;;;;1.80;1.50;;;;;;;23.17;47.28;101442.16;1752893;80;21060;-51
2022/06/07 04:06:06;;;;;;;4.58;1.52;;;;;;;23.17;47.31;101450.13;1752880;80;21075;-49
2022/06/07 04:08:33;;;;;;;1.40;1.30;;;;;;;23.15;47.16;101445.39;1738852;80;21532;-52
2022/06/07 04:11:02;;;;;;;3.65;1.60;;;;;;;23.13;47.14;101443.31;1752851;80;21052;-49
2022/06/07 04:13:38;;;;;;;1.32;1.12;;;;;;;23.09;47.09;101447.11;1703395;83;21052;-52
2022/06/07 04:16:08;;;;;;;2.60;1.80;;;;;;;23.08;47.03;101448.90;1699961;83;21030;-49
2022/06/07 04:18:36;;;;;;;1.95;1.65;;;;;;;23.08;47.12;101447.56;1680904;83;21010;-50
2022/06/07 04:21:05;;;;;;;1.37;1.27;;;;;;;23.09;47.01;101453.74;1706469;83;20994;-49
2022/06/07 04:23:32;;;;;;;3.35;1.50;;;;;;;23.11;47.05;101453.17;1702386;83;21010;-50
2022/06/07 04:26:13;;;;;;;1.45;1.35;;;;;;;23.11;47.23;101451.84;1716947;83;21073;-51
2022/06/07 04:28:42;;;;;;;1.37;1.27;;;;;;;23.11;47.35;101455.83;1663970;85;21520;-50
2022/06/07 04:31:19;;;;;;;1.67;1.55;;;;;;;23.12;47.51;101456.22;1667443;86;21036;-51
2022/06/07 04:33:46;;;;;;;2.80;1.37;;;;;;;23.13;47.86;101459.23;1633020;87;21026;-52
2022/06/07 04:36:20;;;;;;;1.60;1.50;;;;;;;23.14;48.10;101451.66;1627938;88;21140;-49
2022/06/07 04:38:51;;;;;;;1.32;1.22;;;;;;;23.15;48.35;101461.32;1633443;88;21074;-51
2022/06/07 04:41:20;;;;;;;2.27;1.40;;;;;;;23.17;48.26;101456.30;1633427;88;21499;-51
2022/06/07 04:43:51;;;;;;;1.65;1.27;;;;;;;23.20;48.22;101460.57;1630296;88;21054;-50
2022/06/07 04:46:19;;;;;;;1.75;1.60;;;;;;;23.22;48.04;101467.97;1611935;88;21026;-50
2022/06/07 04:48:49;;;;;;;1.73;1.43;;;;;;;23.24;48.08;101470.05;1633138;88;21039;-51
2022/06/07 04:51:23;;;;;;;2.83;1.45;;;;;;;23.26;47.76;101472.99;1629854;88;21785;-50
2022/06/07 04:53:52;;;;;;;2.35;1.40;;;;;;;23.30;47.56;101479.81;1630117;88;21547;-53
2022/06/07 04:56:25;;;;;;;2.12;1.70;;;;;;;23.31;47.26;101475.33;1633054;88;21599;-51
2022/06/07 04:58:52;;;;;;;1.47;1.37;;;;;;;23.31;46.77;101463.38;1633608;88;21026;-49
2022/06/07 05:01:27;;;;;;;5.15;2.00;;;;;;;23.31;46.45;101467.36;1611764;88;21522;-49
2022/06/07 05:03:55;;;;;;;2.17;1.50;;;;;;;23.31;46.27;101466.03;1632826;87;21049;-49
2022/06/07 05:06:25;;;;;;;1.60;1.45;;;;;;;23.31;46.29;101467.36;1603480;87;21088;-49
2022/06/07 05:08:58;;;;;;;1.80;1.70;;;;;;;23.32;46.07;101467.79;1610387;88;21018;-50
2022/06/07 05:11:29;;;;;;;2.12;1.80;;;;;;;23.31;45.83;101462.05;1551525;92;21156;-51
2022/06/07 05:13:58;;;;;;;1.95;1.60;;;;;;;23.31;45.87;101470.02;1536398;92;21127;-49
2022/06/07 05:16:26;;;;;;;2.98;1.98;;;;;;;23.32;46.07;101463.81;1574113;90;21498;-51
2022/06/07 05:18:53;;;;;;;2.85;1.90;;;;;;;23.32;46.13;101461.16;1571687;90;21180;-50
2022/06/07 05:21:21;;;;;;;1.87;1.77;;;;;;;23.31;46.19;101468.23;1572592;90;21101;-50
2022/06/07 05:23:48;;;;;;;3.02;1.95;;;;;;;23.32;46.32;101466.47;1572574;90;21581;-51
2022/06/07 05:26:40;;;;;;;2.22;1.85;;;;;;;23.32;46.59;101469.98;1567481;91;21124;-51
2022/06/07 05:29:11;;;;;;;;;;;;;;;23.36;46.83;101478.59;1593386;89;21606;-52
2022/06/07 05:31:39;;;;;;;2.77;1.62;;;;;;;23.38;47.06;101480.68;1462600;97;20130;-50
2022/06/07 05:34:08;;;;;;;3.05;1.50;;;;;;;23.40;46.91;101477.45;1510518;95;21141;-49
2022/06/07 05:36:37;;;;;;;2.85;1.90;;;;;;;23.43;46.79;101487.39;1524053;92;21088;-51
2022/06/07 05:39:06;;;;;;;3.02;1.77;;;;;;;23.48;46.95;101484.92;1575090;90;21620;-51
2022/06/07 05:41:34;;;;;;;2.40;1.50;;;;;;;23.51;46.99;101488.26;1540729;93;21111;-50
2022/06/07 05:44:06;;;;;;;2.00;1.75;;;;;;;23.54;46.53;101485.39;1537774;93;21050;-53
2022/06/07 05:46:35;;;;;;;1.65;1.55;;;;;;;23.58;46.19;101484.23;1537508;93;21080;-52
2022/06/07 05:49:03;;;;;;;4.95;1.77;;;;;;;23.61;45.78;101486.72;1538113;93;21058;-51
2022/06/07 05:51:35;;;;;;;3.17;1.90;;;;;;;23.67;45.48;101492.96;1537788;93;21209;-49
2022/06/07 05:54:02;;;;;;;4.15;1.85;;;;;;;23.71;45.44;101486.97;1521348;93;21530;-52
2022/06/07 05:56:29;;;;;;;2.00;1.50;;;;;;;23.74;45.50;101495.58;1540744;92;21050;-50
2022/06/07 05:58:55;;;;;;;1.75;1.65;;;;;;;23.77;45.64;101494.53;1540625;93;21119;-49
2022/06/07 06:01:22;;;;;;;4.53;1.87;;;;;;;23.79;45.80;101498.81;1556718;91;21047;-53
2022/06/07 06:03:52;;;;;;;2.47;1.60;;;;;;;23.81;46.06;101503.55;1562499;91;21094;-52
2022/06/07 06:06:19;;;;;;;3.25;2.02;;;;;;;23.84;46.26;101504.69;1576707;91;21612;-51
2022/06/07 06:11:37;;;;;;;2.55;1.85;;;;;;;23.92;46.85;101501.05;1679476;85;21609;-52
2022/06/07 06:14:10;;;;;;;2.70;1.85;;;;;;;23.94;47.06;101492.50;1675353;84;21152;-52
2022/06/07 06:16:38;;;;;;;2.35;2.02;;;;;;;24.00;47.60;101505.39;1681198;85;21062;-51
2022/06/07 06:19:07;;;;;;;5.60;2.00;;;;;;;24.04;47.78;101504.27;1681263;85;21022;-50
2022/06/07 06:21:40;;;;;;;2.00;1.80;;;;;;;24.13;47.83;101508.96;1677934;84;21046;-49
2022/06/07 06:26:38;;;;;;;3.25;2.20;;;;;;;24.20;48.03;101512.93;1630940;88;21010;-52
2022/06/07 06:29:08;;;;;;;2.95;2.25;;;;;;;24.30;47.84;101512.34;1596603;88;21094;-52
2022/06/07 06:31:36;;;;;;;2.45;2.00;;;;;;;24.36;47.97;101515.91;1596594;88;21035;-49
2022/06/07 06:34:03;;;;;;;3.98;2.40;;;;;;;24.41;48.25;101509.78;1619076;88;21118;-51
2022/06/07 06:36:31;;;;;;;4.15;2.45;;;;;;;24.47;48.71;101509.38;1618172;87;21035;-49
2022/06/07 06:38:59;;;;;;;2.75;2.20;;;;;;;24.55;48.45;101509.70;1665379;85;21566;-51
2022/06/07 06:41:30;;;;;;;3.80;2.70;;;;;;;24.61;48.78;101503.96;1677891;85;21014;-51
2022/06/07 06:44:03;;;;;;;3.95;2.85;;;;;;;24.75;48.61;101506.59;1677237;85;21513;-52
2022/06/07 06:49:07;;;;;;;5.85;3.33;;;;;;;25.07;47.11;101499.87;1637874;86;21038;-52
2022/06/07 06:51:35;;;;;;;5.92;3.27;;;;;;;25.26;46.55;101502.95;1671289;86;21094;-49
2022/06/07 06:54:04;;;;;;;4.90;3.40;;;;;;;25.47;46.30;101504.09;1671392;86;21010;-50
2022/06/07 06:56:33;;;;;;;4.95;3.37;;;;;;;25.64;45.73;101500.20;1667216;86;21102;-52
2022/06/07 06:59:01;;;;;;;7.72;3.70;;;;;;;25.73;45.60;101503.08;1668466;86;21010;-49
2022/06/07 07:01:33;;;;;;;3.92;3.17;;;;;;;26.00;45.02;101500.19;1671378;86;21522;-51
2022/06/07 07:04:04;;;;;;;5.03;3.98;;;;;;;26.10;45.09;101495.05;1644526;87;21084;-50
2022/06/07 07:06:31;;;;;;;5.08;3.42;;;;;;;26.27;44.86;101497.31;1644301;87;21064;-52
2022/06/07 07:09:01;;;;;;;7.20;4.17;;;;;;;26.27;44.86;101497.31;1644525;87;21093;-49
2022/06/07 07:11:38;;;;;;;4.37;3.62;;;;;;;26.47;44.69;101500.64;1644651;87;21557;-51
2022/06/07 07:14:07;;;;;;;5.37;3.67;;;;;;;26.63;44.32;101505.68;1643514;87;21553;-50
2022/06/07 07:16:42;;;;;;;7.78;4.20;;;;;;;26.79;44.22;101505.72;1639328;87;21109;-55
2022/06/07 07:19:09;;;;;;;6.37;3.83;;;;;;;27.02;43.64;101504.78;1640512;87;21045;-51
2022/06/07 07:21:39;;;;;;;7.92;3.98;;;;;;;27.12;42.73;101508.43;1644591;87;21065;-50
2022/06/07 07:24:14;;;;;;;6.45;4.45;;;;;;;27.13;42.52;101511.48;1626982;87;21563;-52
2022/06/07 07:26:46;;;;;;;6.67;3.95;;;;;;;27.13;42.76;101510.14;1594609;88;21085;-50
2022/06/07 07:29:16;;;;;;;4.50;3.70;;;;;;;27.11;43.06;101510.75;1595893;88;21606;-53
2022/06/07 07:31:43;;;;;;;6.20;3.90;;;;;;;27.10;42.85;101509.03;1612160;89;21038;-50
2022/06/07 07:34:14;;;;;;;4.58;3.47;;;;;;;27.17;43.04;101506.26;1589167;90;21030;-50
2022/06/07 07:36:50;;;;;;;5.78;3.62;;;;;;;27.27;42.91;101509.89;1568663;90;21208;-50
2022/06/07 07:39:18;;;;;;;4.28;3.30;;;;;;;27.33;42.68;101513.89;1503544;95;21057;-51
2022/06/07 07:41:48;;;;;;;5.28;3.85;;;;;;;27.45;42.27;101514.79;1524263;93;21062;-52
2022/06/07 07:44:15;;;;;;;4.85;3.92;;;;;;;27.50;42.18;101511.24;1496605;95;21078;-48
2022/06/07 07:46:44;;;;;;;8.13;4.10;;;;;;;27.52;42.29;101514.64;1576763;90;21578;-50
2022/06/07 07:49:15;;;;;;;5.72;3.95;;;;;;;27.63;41.98;101512.83;1576910;91;21016;-50
2022/06/07 07:51:45;;;;;;;5.53;3.72;;;;;;;27.62;42.02;101516.94;1567872;90;21129;-51
2022/06/07 07:54:16;;;;;;;4.15;3.65;;;;;;;27.61;41.61;101510.77;1581171;90;21652;-53
2022/06/07 07:56:43;;;;;;;5.30;3.62;;;;;;;27.64;42.39;101514.98;1556457;92;21141;-51
2022/06/07 07:59:13;;;;;;;9.98;3.70;;;;;;;27.70;42.42;101510.51;1573031;91;21634;-47
2022/06/07 08:01:41;;;;;;;8.37;4.10;;;;;;;27.70;42.19;101517.19;1629232;87;21049;-50
2022/06/07 08:04:09;;;;;;;4.72;3.70;;;;;;;27.74;41.90;101512.78;1636536;87;21042;-52
2022/06/07 08:06:38;;;;;;;6.15;3.58;;;;;;;27.77;41.69;101514.36;1635892;87;21549;-51
2022/06/07 08:09:08;;;;;;;4.15;3.75;;;;;;;27.73;42.07;101511.58;1637292;87;21061;-53
2022/06/07 08:11:36;;;;;;;4.92;3.92;;;;;;;27.70;42.29;101515.86;1637428;87;21069;-51
2022/06/07 08:14:05;;;;;;;5.12;4.05;;;;;;;27.67;42.25;101514.75;1637120;87;21570;-51
2022/06/07 08:16:32;;;;;;;6.80;4.58;;;;;;;27.62;42.41;101515.12;1637582;87;21116;-49
2022/06/07 08:19:00;;;;;;;5.25;3.92;;;;;;;27.62;42.88;101511.59;1637596;87;21045;-54
2022/06/07 08:21:27;;;;;;;9.50;3.83;;;;;;;27.65;42.85;101514.03;1637678;87;21017;-51
2022/06/07 08:23:55;;;;;;;6.20;3.80;;;;;;;27.68;42.74;101512.42;1637262;87;21026;-50
2022/06/07 08:26:23;;;;;;;4.22;3.72;;;;;;;27.70;42.90;101519.87;1639390;87;21597;-51
2022/06/07 08:28:50;;;;;;;6.65;4.10;;;;;;;27.66;43.26;101518.38;1635288;87;21093;-49
2022/06/07 08:31:21;;;;;;;5.35;3.85;;;;;;;27.66;43.90;101517.05;1625229;88;21122;-51
2022/06/07 08:39:19;;;;;;;6.33;4.05;;;;;;;27.89;43.09;101516.03;1691562;84;21019;-51
2022/06/07 08:41:59;;;;;;;6.15;4.28;;;;;;;27.83;42.86;101517.87;1695725;84;21043;-50
2022/06/07 08:45:01;;;;;;;5.80;4.28;;;;;;;27.84;42.85;101520.41;1694411;84;21529;-49
2022/06/07 08:47:56;;;;;;;4.67;3.95;;;;;;;27.85;43.22;101521.27;1696492;83;21044;-51
2022/06/07 08:50:37;;;;;;;6.45;4.10;;;;;;;27.84;43.62;101524.94;1696785;83;21110;-50
2022/06/07 08:53:20;;;;;;;7.25;3.98;;;;;;;27.82;43.47;101516.19;1683957;84;21035;-50
2022/06/07 08:55:58;;;;;;;7.55;4.10;;;;;;;27.86;43.05;101514.96;1656587;86;21014;-52
2022/06/07 08:58:38;;;;;;;9.98;3.65;;;;;;;27.88;42.98;101512.50;1656891;86;21081;-50
2022/06/07 09:01:24;;;;;;;5.17;4.17;;;;;;;27.93;43.00;101508.11;1670676;86;21543;-49
2022/06/07 09:04:19;;;;;;;7.25;4.10;;;;;;;27.97;43.05;101501.56;1611617;89;21104;-50
2022/06/07 09:06:52;;;;;;;5.28;4.10;;;;;;;28.02;42.85;101507.40;1629264;87;21105;-49
2022/06/07 09:09:22;;;;;;;6.67;3.98;;;;;;;28.06;42.51;101515.53;1613864;89;21121;-51
2022/06/07 09:12:10;;;;;;;6.50;4.05;;;;;;;28.02;42.72;101507.40;1625738;87;21057;-54
2022/06/07 09:14:54;;;;;;;8.45;4.17;;;;;;;28.09;42.44;101501.88;1554397;91;21087;-51
2022/06/07 09:17:34;;;;;;;4.37;3.75;;;;;;;28.14;42.37;101505.90;1554598;91;21075;-49
2022/06/07 09:20:03;;;;;;;8.20;4.05;;;;;;;28.18;42.12;101501.98;1554642;91;21056;-50
2022/06/07 09:22:43;;;;;;;5.80;4.25;;;;;;;28.23;42.11;101505.63;1554385;91;21160;-49
2022/06/07 09:25:37;;;;;;;5.05;4.37;;;;;;;28.23;41.91;101513.66;1521807;93;21637;-54
2022/06/07 09:28:08;;;;;;;7.00;4.08;;;;;;;28.25;42.28;101517.05;1518958;93;21121;-51
2022/06/07 09:30:38;;;;;;;5.83;4.42;;;;;;;28.29;42.35;101508.27;1515015;93;21100;-51
2022/06/07 09:33:10;;;;;;;6.22;4.20;;;;;;;28.33;41.95;101509.70;1514280;93;21663;-50
2022/06/07 09:35:42;;;;;;;5.70;4.05;;;;;;;28.35;42.09;101505.93;1495404;94;21094;-53
2022/06/07 09:38:26;;;;;;;7.45;4.47;;;;;;;28.39;41.53;101511.38;1492574;94;21224;-52
2022/06/07 09:40:57;;;;;;;12.53;4.30;;;;;;;28.41;41.56;101504.07;1483856;95;21224;-51
2022/06/07 09:43:29;;;;;;;;;;;;;;;28.45;41.07;101502.83;1529798;94;21103;-50
2022/06/07 09:46:08;;;;;;;5.80;4.30;;;;;;;28.50;40.75;101504.61;1496309;95;20440;-48
2022/06/07 09:48:42;;;;;;;4.80;4.03;;;;;;;28.52;40.48;101499.97;1467706;98;21165;-49
2022/06/07 09:51:26;;;;;;;6.55;3.70;;;;;;;28.55;40.06;101507.77;1468016;98;21118;-55
2022/06/07 09:54:05;;;;;;;6.12;4.40;;;;;;;28.56;40.50;101508.17;1466135;96;21117;-50
2022/06/07 09:56:42;;;;;;;5.40;4.25;;;;;;;28.58;40.22;101507.55;1470235;97;21104;-51
2022/06/07 09:59:50;;;;;;;8.23;3.92;;;;;;;28.62;40.27;101506.31;1450641;97;21130;-52
2022/06/07 10:02:36;;;;;;;5.87;4.05;;;;;;;28.65;40.53;101510.53;1424315;100;21109;-51
2022/06/07 10:05:29;;;;;;;7.78;4.90;;;;;;;28.65;40.97;101505.17;1411558;101;21161;-51
2022/06/07 10:08:27;;;;;;;13.28;4.37;;;;;;;28.68;41.27;101500.91;1426771;101;21125;-51
2022/06/07 10:11:23;;;;;;;5.60;4.05;;;;;;;28.74;40.63;101499.90;1437197;97;21185;-51
2022/06/07 10:14:22;;;;;;;7.40;5.37;;;;;;;28.80;40.04;101504.72;1471245;96;21162;-49
2022/06/07 10:16:57;;;;;;;8.25;4.25;;;;;;;28.84;40.09;101503.48;1446169;98;21139;-51
2022/06/07 10:19:47;;;;;;;6.45;4.22;;;;;;;28.91;39.73;101503.80;1433170;99;21599;-49
2022/06/07 10:22:20;;;;;;;6.22;4.80;;;;;;;28.97;39.66;101497.39;1439398;99;21097;-54
2022/06/07 10:25:21;;;;;;;6.58;5.22;;;;;;;29.05;39.10;101494.55;1433162;100;21158;-52
2022/06/07 10:28:02;;;;;;;7.25;5.53;;;;;;;29.12;38.94;101493.05;1441884;98;21122;-52
2022/06/07 10:31:08;;;;;;;7.53;5.03;;;;;;;29.20;38.24;101494.59;1426164;99;21144;-53
2022/06/07 10:33:52;;;;;;;7.53;5.05;;;;;;;29.24;38.52;101493.34;1446019;99;21163;-50
2022/06/07 10:36:58;;;;;;;5.65;4.62;;;;;;;29.29;38.85;101492.42;1462212;97;21086;-51
2022/06/07 10:39:45;;;;;;;9.80;4.97;;;;;;;29.32;38.90;101497.05;1497066;95;21107;-51
2022/06/07 10:42:38;;;;;;;8.30;4.78;;;;;;;29.41;38.38;101492.67;1469701;97;21133;-51
2022/06/07 10:45:27;;;;;;;7.12;4.92;;;;;;;29.47;38.54;101490.81;1472016;96;21631;-50
2022/06/07 10:48:03;;;;;;;7.65;4.83;;;;;;;29.56;38.43;101491.31;1454268;98;21603;-52
2022/06/07 10:50:47;;;;;;;7.78;5.60;;;;;;;29.63;37.83;101487.11;1454162;99;21584;-52
2022/06/07 10:53:40;;;;;;;7.03;5.15;;;;;;;29.69;37.31;101483.87;1454394;99;21107;-50
2022/06/07 10:56:18;;;;;;;7.87;5.65;;;;;;;29.74;36.96;101485.66;1454188;99;21584;-53
2022/06/07 10:58:49;;;;;;;7.85;5.40;;;;;;;29.78;36.19;101480.37;1455142;96;21232;-49
2022/06/07 11:01:30;;;;;;;8.68;5.10;;;;;;;29.81;36.25;101480.11;1521064;93;21068;-52
2022/06/07 11:10:07;;;;;;;7.50;5.83;;;;;;;29.86;36.18;101476.52;1492002;96;21199;-52
2022/06/07 11:12:47;;;;;;;9.58;5.75;;;;;;;29.89;36.67;101478.05;1482133;94;21110;-49
2022/06/07 11:15:42;;;;;;;9.60;6.58;;;;;;;29.91;36.94;101482.30;1497957;95;21425;-51
2022/06/07 11:18:19;;;;;;;8.13;6.00;;;;;;;29.95;36.19;101478.83;1494623;95;21090;-54
2022/06/07 11:21:09;;;;;;;10.05;6.87;;;;;;;30.01;35.67;101470.22;1466216;98;21137;-50
2022/06/07 11:23:49;;;;;;;10.90;6.27;;;;;;;30.05;35.10;101473.83;1475775;97;21183;-51
2022/06/07 11:26:17;;;;;;;10.48;7.03;;;;;;;30.04;34.99;101473.49;1463929;98;21268;-50
2022/06/07 11:28:56;;;;;;;11.35;8.35;;;;;;;29.96;35.02;101469.33;1454638;99;21179;-54
2022/06/07 11:31:40;;;;;;;9.65;7.70;;;;;;;29.90;34.80;101475.26;1461896;97;21201;-51
2022/06/07 11:34:13;;;;;;;8.30;6.87;;;;;;;29.85;34.74;101460.05;1452849;96;21138;-53
2022/06/07 11:36:42;;;;;;;11.03;7.58;;;;;;;29.78;34.50;101464.79;1461719;96;21129;-51
2022/06/07 11:39:27;;;;;;;11.12;6.60;;;;;;;29.74;34.83;101473.59;1461920;98;21101;-51
2022/06/07 11:41:58;;;;;;;8.95;6.47;;;;;;;29.69;34.49;101467.77;1453124;98;21157;-49
2022/06/07 11:44:35;;;;;;;9.63;7.10;;;;;;;29.64;34.49;101464.64;1462041;98;21113;-49
2022/06/07 11:47:17;;;;;;;9.98;6.60;;;;;;;29.62;34.45;101462.59;1479884;96;21105;-52
2022/06/07 11:49:54;;;;;;;8.73;6.58;;;;;;;29.58;34.14;101463.86;1501159;94;21103;-51
2022/06/07 11:52:29;;;;;;;8.10;5.87;;;;;;;29.54;34.12;101462.44;1517258;92;21124;-56
2022/06/07 11:55:00;;;;;;;6.42;5.40;;;;;;;29.51;34.85;101459.53;1567895;91;21120;-50
2022/06/07 11:57:40;;;;;;;6.97;6.15;;;;;;;29.53;34.36;101452.20;1565472;91;21050;-50
2022/06/07 12:00:24;;;;;;;8.83;5.42;;;;;;;29.56;34.15;101453.77;1586665;89;21085;-53
2022/06/07 12:03:03;;;;;;;8.88;6.25;;;;;;;29.58;33.99;101451.80;1617680;88;21097;-52
2022/06/07 12:05:46;;;;;;;11.03;6.40;;;;;;;29.56;34.20;101448.41;1615704;88;21045;-51
2022/06/07 12:08:31;;;;;;;8.25;6.08;;;;;;;29.50;34.37;101440.91;1603344;89;21070;-51
2022/06/07 12:11:06;;;;;;;10.30;6.30;;;;;;;29.44;34.72;101437.44;1605568;89;21094;-49
2022/06/07 12:13:49;;;;;;;7.58;5.47;;;;;;;29.42;35.16;101438.08;1604865;89;21055;-51
2022/06/07 12:16:36;;;;;;;5.85;4.37;;;;;;;29.44;34.52;101436.95;1603562;89;21058;-49
2022/06/07 12:19:18;;;;;;;5.67;4.67;;;;;;;29.48;33.93;101434.35;1633901;86;21077;-51